createdAt,value
2022-12-06T00:01:34.236Z,22.50
2022-12-06T00:04:05.230Z,20.70
2022-12-06T00:06:37.807Z,21.10
2022-12-06T00:09:05.733Z,21.10
2022-12-06T00:11:35.742Z,20.90
2022-12-06T00:14:06.909Z,21.50
2022-12-06T00:16:36.452Z,20.20
2022-12-06T00:19:05.004Z,21.60
2022-12-06T00:21:35.454Z,21.30
2022-12-06T00:24:07.803Z,23.30
2022-12-06T00:26:38.291Z,21.80
2022-12-06T00:29:06.754Z,20.70
2022-12-06T00:31:35.844Z,20.30
2022-12-06T00:34:04.307Z,19.80
2022-12-06T00:36:35.024Z,19.50
2022-12-06T00:39:05.981Z,18.90
2022-12-06T00:41:33.760Z,18.50
2022-12-06T00:44:01.611Z,17.40
2022-12-06T00:46:31.615Z,16.60
2022-12-06T00:49:02.302Z,17.10
2022-12-06T00:51:32.587Z,17.50
2022-12-06T00:54:00.640Z,16.20
2022-12-06T00:56:28.575Z,16.90
2022-12-06T00:58:56.880Z,15.90
2022-12-06T01:01:27.069Z,17.10
2022-12-06T01:03:58.688Z,17.60
2022-12-06T01:06:29.089Z,17.70
2022-12-06T01:09:00.418Z,17.80
2022-12-06T01:11:29.582Z,18.50
2022-12-06T01:13:57.789Z,18.50
2022-12-06T01:16:28.718Z,19.60
2022-12-06T01:18:59.879Z,17.80
2022-12-06T01:21:28.910Z,19.00
2022-12-06T01:23:57.495Z,19.40
2022-12-06T01:26:29.245Z,19.40
2022-12-06T01:28:58.810Z,19.90
2022-12-06T01:31:30.822Z,20.90
2022-12-06T01:34:01.705Z,19.80
2022-12-06T01:36:29.533Z,20.60
2022-12-06T01:38:58.476Z,20.80
2022-12-06T01:41:27.666Z,20.50
2022-12-06T01:43:56.211Z,21.30
2022-12-06T01:46:33.738Z,19.70
2022-12-06T01:49:17.238Z,18.40
2022-12-06T01:51:51.110Z,19.30
2022-12-06T01:54:20.830Z,18.40
2022-12-06T01:56:49.550Z,18.30
2022-12-06T01:59:17.896Z,17.60
2022-12-06T02:01:47.229Z,18.40
2022-12-06T02:04:17.071Z,16.00
2022-12-06T02:06:46.435Z,15.50
2022-12-06T02:09:16.599Z,14.90
2022-12-06T02:11:45.887Z,15.90
2022-12-06T02:14:18.046Z,15.10
2022-12-06T02:17:05.612Z,15.00
2022-12-06T02:19:56.402Z,15.50
2022-12-06T02:22:49.933Z,14.70
2022-12-06T02:25:49.417Z,15.80
2022-12-06T02:28:47.600Z,15.90
2022-12-06T02:31:55.159Z,16.50
2022-12-06T02:34:44.473Z,15.90
2022-12-06T02:37:23.732Z,16.00
2022-12-06T02:40:06.526Z,16.00
2022-12-06T02:42:42.077Z,16.30
2022-12-06T02:45:15.718Z,17.60
2022-12-06T02:47:46.400Z,15.70
2022-12-06T02:50:19.804Z,16.80
2022-12-06T02:52:52.455Z,16.50
2022-12-06T02:55:23.568Z,16.10
2022-12-06T02:57:53.918Z,16.10
2022-12-06T03:00:32.423Z,16.70
2022-12-06T03:03:36.395Z,16.40
2022-12-06T03:06:22.773Z,16.40
2022-12-06T03:09:21.583Z,17.00
2022-12-06T03:12:16.608Z,16.40
2022-12-06T03:14:55.969Z,15.80
2022-12-06T03:17:36.611Z,16.50
2022-12-06T03:20:10.399Z,15.70
2022-12-06T03:22:45.020Z,15.50
2022-12-06T03:25:14.136Z,14.00
2022-12-06T03:27:43.809Z,14.00
2022-12-06T03:30:13.755Z,13.90
2022-12-06T03:32:46.628Z,13.30
2022-12-06T03:35:20.113Z,13.00
2022-12-06T03:37:55.441Z,13.00
2022-12-06T03:40:28.871Z,13.10
2022-12-06T03:42:58.574Z,13.80
2022-12-06T03:45:36.421Z,13.10
2022-12-06T03:48:12.917Z,13.80
2022-12-06T03:53:17.629Z,15.20
2022-12-06T03:55:45.904Z,14.00
2022-12-06T03:58:14.283Z,13.00
2022-12-06T04:00:42.087Z,14.20
2022-12-06T04:03:09.849Z,14.90
2022-12-06T04:05:38.292Z,12.70
2022-12-06T04:08:06.394Z,12.10
2022-12-06T04:10:34.549Z,12.30
2022-12-06T04:13:02.424Z,14.40
2022-12-06T04:15:34.810Z,13.60
2022-12-06T04:18:20.623Z,13.10
2022-12-06T04:21:10.856Z,14.00
2022-12-06T04:23:42.826Z,15.00
2022-12-06T04:26:13.906Z,14.60
2022-12-06T04:29:01.733Z,13.70
2022-12-06T04:31:41.600Z,12.40
2022-12-06T04:34:21.618Z,13.40
2022-12-06T04:37:01.881Z,12.40
2022-12-06T04:39:30.426Z,12.10
2022-12-06T04:42:12.127Z,12.00
2022-12-06T04:44:40.076Z,10.60
2022-12-06T04:47:08.950Z,11.30
2022-12-06T04:49:39.142Z,11.20
2022-12-06T04:52:08.662Z,11.60
2022-12-06T04:54:37.394Z,12.40
2022-12-06T04:57:11.204Z,12.70
2022-12-06T04:59:41.287Z,13.10
2022-12-06T05:02:12.879Z,13.70
2022-12-06T05:04:41.142Z,14.40
2022-12-06T05:07:10.232Z,13.70
2022-12-06T05:09:38.458Z,14.10
2022-12-06T05:12:06.858Z,14.60
2022-12-06T05:14:34.994Z,14.30
2022-12-06T05:17:03.591Z,14.20
2022-12-06T05:19:32.190Z,14.30
2022-12-06T05:22:00.013Z,15.10
2022-12-06T05:24:28.063Z,15.80
2022-12-06T05:26:56.430Z,15.50
2022-12-06T05:29:24.214Z,16.30
2022-12-06T05:31:52.092Z,16.00
2022-12-06T05:34:19.998Z,16.60
2022-12-06T05:36:47.834Z,16.00
2022-12-06T05:39:17.717Z,15.90
2022-12-06T05:41:46.071Z,15.70
2022-12-06T05:44:14.263Z,15.40
2022-12-06T05:46:42.103Z,14.60
2022-12-06T05:49:10.029Z,15.10
2022-12-06T05:51:38.524Z,15.70
2022-12-06T05:54:06.834Z,14.20
2022-12-06T05:56:34.756Z,15.40
2022-12-06T05:59:03.550Z,13.90
2022-12-06T06:01:32.468Z,13.90
2022-12-06T06:04:01.651Z,14.10
2022-12-06T06:06:29.497Z,13.60
2022-12-06T06:08:57.354Z,13.20
2022-12-06T06:11:25.181Z,13.80
2022-12-06T06:13:54.673Z,14.10
2022-12-06T06:16:23.266Z,15.70
2022-12-06T06:18:51.134Z,15.30
2022-12-06T06:21:18.996Z,16.90
2022-12-06T06:23:46.856Z,17.00
2022-12-06T06:26:14.763Z,16.70
2022-12-06T06:28:42.937Z,19.20
2022-12-06T06:31:13.429Z,16.60
2022-12-06T06:33:41.191Z,17.00
2022-12-06T06:36:09.491Z,18.50
2022-12-06T06:38:37.921Z,18.80
2022-12-06T06:41:06.186Z,17.30
2022-12-06T06:43:34.116Z,18.20
2022-12-06T06:46:06.944Z,18.70
2022-12-06T06:48:38.123Z,18.50
2022-12-06T06:51:09.253Z,18.60
2022-12-06T06:53:43.483Z,17.20
2022-12-06T06:56:11.580Z,16.00
2022-12-06T06:58:43.439Z,16.50
2022-12-06T07:01:17.976Z,15.30
2022-12-06T07:03:46.477Z,13.10
2022-12-06T07:06:14.818Z,13.60
2022-12-06T07:08:44.461Z,13.20
2022-12-06T07:11:14.778Z,11.40
2022-12-06T07:16:20.961Z,12.40
2022-12-06T07:18:52.840Z,13.00
2022-12-06T07:21:56.103Z,13.10
2022-12-06T07:24:27.517Z,14.40
2022-12-06T07:26:57.919Z,16.40
2022-12-06T07:29:27.328Z,16.80
2022-12-06T07:31:56.286Z,16.50
2022-12-06T07:34:24.445Z,16.40
2022-12-06T07:37:00.504Z,18.20
2022-12-06T07:39:28.506Z,17.30
2022-12-06T07:42:44.671Z,16.90
2022-12-06T07:45:37.183Z,16.30
2022-12-06T07:48:51.793Z,16.10
2022-12-06T07:51:25.662Z,16.70
2022-12-06T07:54:13.372Z,17.20
2022-12-06T08:03:08.965Z,11.50
2022-12-06T08:05:42.907Z,10.20
2022-12-06T08:08:13.354Z,8.60
2022-12-06T08:10:53.647Z,9.70
2022-12-06T08:13:21.763Z,9.30
2022-12-06T08:15:51.982Z,7.60
2022-12-06T08:18:21.317Z,9.60
2022-12-06T08:20:59.438Z,9.80
2022-12-06T08:23:38.592Z,9.40
2022-12-06T08:26:09.754Z,9.30
2022-12-06T08:28:38.361Z,9.30
2022-12-06T08:31:14.337Z,9.00
2022-12-06T08:34:32.348Z,9.50
2022-12-06T08:42:25.023Z,10.10
2022-12-06T08:45:43.490Z,10.20
2022-12-06T08:48:29.165Z,10.30
2022-12-06T08:52:45.283Z,13.80
2022-12-06T08:55:28.334Z,10.00
2022-12-06T08:58:00.658Z,9.60
2022-12-06T09:00:28.942Z,10.20
2022-12-06T09:03:01.255Z,9.70
2022-12-06T09:05:31.596Z,10.20
2022-12-06T09:07:59.406Z,9.10
2022-12-06T09:10:27.146Z,8.50
2022-12-06T09:12:54.997Z,8.70
2022-12-06T09:15:22.742Z,8.80
2022-12-06T09:17:50.518Z,9.00
2022-12-06T09:20:18.382Z,8.50
2022-12-06T09:22:47.028Z,7.90
2022-12-06T09:25:19.448Z,8.50
2022-12-06T09:27:47.897Z,8.80
2022-12-06T09:30:15.902Z,8.70
2022-12-06T09:32:52.677Z,8.80
2022-12-06T09:35:25.339Z,7.80
2022-12-06T09:37:53.798Z,7.90
2022-12-06T09:40:41.316Z,8.20
2022-12-06T09:43:43.011Z,9.10
2022-12-06T09:46:52.335Z,8.20
2022-12-06T09:49:41.399Z,8.40
2022-12-06T09:52:51.443Z,8.30
2022-12-06T09:55:52.852Z,8.90
2022-12-06T09:58:56.576Z,10.00
2022-12-06T10:01:47.457Z,8.90
2022-12-06T10:04:54.105Z,9.80
2022-12-06T10:07:48.573Z,10.70
2022-12-06T10:10:33.610Z,9.70
2022-12-06T10:13:14.613Z,10.10
2022-12-06T10:15:59.324Z,11.10
2022-12-06T10:18:44.388Z,12.60
2022-12-06T10:21:44.574Z,12.20
2022-12-06T10:24:38.255Z,12.00
2022-12-06T10:27:12.711Z,11.50
2022-12-06T10:29:59.271Z,11.10
2022-12-06T10:32:44.577Z,12.10
2022-12-06T10:35:39.106Z,11.80
2022-12-06T10:38:30.515Z,11.50
2022-12-06T10:41:13.140Z,12.20
2022-12-06T10:44:15.970Z,11.70
2022-12-06T10:47:04.415Z,10.60
2022-12-06T10:49:48.254Z,10.20
2022-12-06T10:52:30.461Z,9.80
2022-12-06T10:55:16.546Z,8.70
2022-12-06T10:58:08.500Z,9.00
2022-12-06T11:00:47.093Z,9.40
2022-12-06T11:03:28.937Z,10.00
2022-12-06T11:06:07.162Z,10.50
2022-12-06T11:08:51.588Z,10.70
2022-12-06T11:11:29.040Z,11.20
2022-12-06T11:14:08.817Z,11.00
2022-12-06T11:16:47.286Z,11.30
2022-12-06T11:19:40.407Z,12.30
2022-12-06T11:22:25.140Z,12.90
2022-12-06T11:25:06.729Z,13.50
2022-12-06T11:28:04.340Z,14.20
2022-12-06T11:30:37.378Z,14.10
2022-12-06T11:33:30.367Z,15.10
2022-12-06T11:36:32.451Z,13.60
2022-12-06T11:39:36.445Z,12.00
2022-12-06T11:42:23.442Z,12.30
2022-12-06T11:45:14.312Z,11.80
2022-12-06T11:47:45.975Z,12.00
2022-12-06T11:50:20.519Z,11.80
2022-12-06T11:52:57.776Z,11.70
2022-12-06T11:55:32.124Z,10.70
2022-12-06T11:58:08.769Z,12.80
2022-12-06T12:00:39.981Z,11.80
2022-12-06T12:03:47.403Z,13.00
2022-12-06T12:06:27.184Z,13.40
2022-12-06T12:09:06.491Z,13.90
2022-12-06T12:11:39.977Z,13.40
2022-12-06T12:14:16.624Z,14.10
2022-12-06T12:19:58.374Z,13.50
2022-12-06T12:22:36.917Z,15.10
2022-12-06T12:25:24.863Z,14.90
2022-12-06T12:27:56.028Z,15.40
2022-12-06T12:30:41.984Z,15.80
2022-12-06T12:33:20.150Z,15.70
2022-12-06T12:35:51.705Z,14.90
2022-12-06T12:38:28.522Z,15.40
2022-12-06T12:41:12.594Z,16.40
2022-12-06T12:44:07.695Z,15.30
2022-12-06T12:46:48.556Z,14.10
2022-12-06T12:49:31.585Z,16.00
2022-12-06T12:52:01.476Z,14.90
2022-12-06T12:54:37.778Z,16.10
2022-12-06T12:57:16.060Z,15.00
2022-12-06T12:59:45.867Z,16.60
2022-12-06T13:02:27.224Z,16.40
2022-12-06T13:05:32.111Z,16.50
2022-12-06T13:08:05.431Z,16.60
2022-12-06T13:10:39.338Z,15.70
2022-12-06T13:13:26.835Z,16.30
2022-12-06T13:16:10.598Z,17.10
2022-12-06T13:18:49.374Z,16.10
2022-12-06T13:21:46.930Z,14.50
2022-12-06T13:25:01.063Z,14.00
2022-12-06T13:27:39.353Z,15.60
2022-12-06T13:30:21.783Z,15.40
2022-12-06T13:33:07.290Z,15.10
2022-12-06T13:35:45.045Z,14.40
2022-12-06T13:38:26.991Z,14.40
2022-12-06T13:41:04.647Z,14.80
2022-12-06T13:43:52.687Z,15.60
2022-12-06T13:46:24.503Z,14.70
2022-12-06T13:48:58.064Z,17.90
2022-12-06T13:51:49.929Z,18.70
2022-12-06T13:54:28.607Z,20.40
2022-12-06T13:56:58.625Z,20.90
2022-12-06T13:59:35.164Z,21.50
2022-12-06T14:02:46.360Z,21.20
2022-12-06T14:08:26.138Z,19.60
2022-12-06T14:11:35.115Z,18.30
2022-12-06T14:14:26.295Z,19.50
2022-12-06T14:17:02.407Z,21.80
2022-12-06T14:19:41.168Z,21.00
2022-12-06T14:22:32.496Z,21.60
2022-12-06T14:25:05.482Z,19.90
2022-12-06T14:27:50.670Z,18.10
2022-12-06T14:30:25.888Z,17.20
2022-12-06T14:32:57.850Z,17.40
2022-12-06T14:35:35.887Z,18.30
2022-12-06T14:38:28.740Z,18.30
2022-12-06T14:41:13.454Z,16.10
2022-12-06T14:43:42.689Z,16.10
2022-12-06T14:46:15.724Z,14.70
2022-12-06T14:49:03.720Z,15.30
2022-12-06T14:51:42.217Z,13.90
2022-12-06T14:54:34.753Z,15.70
2022-12-06T14:57:04.262Z,14.00
2022-12-06T15:00:13.113Z,13.50
2022-12-06T15:02:26.311Z,13.80
2022-12-06T15:04:54.961Z,13.10
2022-12-06T15:07:39.858Z,14.70
2022-12-06T15:10:24.407Z,14.10
2022-12-06T15:13:04.448Z,15.30
2022-12-06T15:15:46.443Z,17.60
2022-12-06T15:18:24.086Z,17.80
2022-12-06T15:20:54.059Z,19.30
2022-12-06T15:23:30.585Z,19.10
2022-12-06T15:28:31.811Z,18.50
2022-12-06T15:30:59.936Z,18.00
2022-12-06T15:33:27.961Z,18.30
2022-12-06T15:35:56.161Z,20.90
2022-12-06T15:38:27.693Z,21.60
2022-12-06T15:40:56.358Z,21.20
2022-12-06T15:43:29.300Z,21.60
2022-12-06T15:46:01.082Z,21.90
2022-12-06T15:48:31.551Z,20.70
2022-12-06T15:51:00.256Z,19.60
2022-12-06T15:53:29.824Z,18.10
2022-12-06T15:55:57.746Z,17.60
2022-12-06T15:58:26.339Z,20.30
2022-12-06T16:00:56.424Z,21.30
2022-12-06T16:03:25.234Z,21.20
2022-12-06T16:05:53.199Z,25.20
2022-12-06T16:08:23.260Z,23.50
2022-12-06T16:13:39.232Z,21.90
2022-12-06T16:16:08.283Z,21.90
2022-12-06T16:18:42.288Z,22.40
2022-12-06T16:21:21.352Z,22.30
2022-12-06T16:24:14.131Z,19.20
2022-12-06T16:26:45.249Z,21.00
2022-12-06T16:29:23.352Z,19.70
2022-12-06T16:31:53.085Z,19.30
2022-12-06T16:34:21.343Z,17.20
2022-12-06T16:37:02.113Z,19.20
2022-12-06T16:39:34.856Z,20.40
2022-12-06T16:42:04.631Z,19.80
2022-12-06T16:44:33.203Z,16.90
2022-12-06T16:47:01.111Z,17.40
2022-12-06T16:49:49.095Z,19.80
2022-12-06T16:52:17.445Z,16.10
2022-12-06T16:54:45.630Z,18.40
2022-12-06T16:57:14.933Z,16.60
2022-12-06T16:59:45.024Z,16.40
2022-12-06T17:02:28.998Z,16.20
2022-12-06T17:05:01.458Z,18.20
2022-12-06T17:07:30.988Z,17.70
2022-12-06T17:09:59.818Z,18.00
2022-12-06T17:12:27.837Z,17.00
2022-12-06T17:14:55.699Z,16.70
2022-12-06T17:17:26.037Z,18.40
2022-12-06T17:19:56.138Z,22.10
2022-12-06T17:22:24.227Z,19.90
2022-12-06T17:24:52.127Z,19.80
2022-12-06T17:27:20.063Z,18.90
2022-12-06T17:29:53.555Z,19.70
2022-12-06T17:32:22.134Z,18.90
2022-12-06T17:34:50.128Z,19.30
2022-12-06T17:37:19.904Z,18.00
2022-12-06T17:39:52.591Z,17.70
2022-12-06T17:42:36.584Z,17.90
2022-12-06T17:45:05.985Z,17.10
2022-12-06T17:47:34.380Z,16.90
2022-12-06T17:50:05.723Z,15.80
2022-12-06T17:52:33.738Z,18.30
2022-12-06T17:55:02.142Z,19.40
2022-12-06T17:57:30.423Z,19.30
2022-12-06T17:59:58.235Z,20.60
2022-12-06T18:02:26.582Z,20.20
2022-12-06T18:04:56.149Z,20.30
2022-12-06T18:07:23.897Z,18.70
2022-12-06T18:09:51.614Z,20.20
2022-12-06T18:12:19.402Z,21.00
2022-12-06T18:14:47.291Z,20.90
2022-12-06T18:17:15.156Z,23.00
2022-12-06T18:19:47.114Z,21.70
2022-12-06T18:22:15.577Z,22.40
2022-12-06T18:24:44.777Z,23.50
2022-12-06T18:27:13.012Z,22.20
2022-12-06T18:29:42.023Z,23.30
2022-12-06T18:32:09.935Z,23.20
2022-12-06T18:34:38.008Z,22.10
2022-12-06T18:37:05.921Z,22.50
2022-12-06T18:39:33.617Z,21.40
2022-12-06T18:42:01.520Z,21.20
2022-12-06T18:44:29.409Z,19.80
2022-12-06T18:46:57.147Z,23.00
2022-12-06T18:49:24.988Z,22.10
2022-12-06T18:51:52.928Z,23.50
2022-12-06T18:54:21.640Z,22.80
2022-12-06T18:56:49.392Z,25.20
2022-12-06T18:59:17.326Z,22.40
2022-12-06T19:01:45.065Z,22.90
2022-12-06T19:04:14.845Z,21.40
2022-12-06T19:06:44.059Z,22.10
2022-12-06T19:09:15.158Z,21.90
2022-12-06T19:11:46.095Z,21.80
2022-12-06T19:14:15.207Z,23.60
2022-12-06T19:16:46.945Z,26.60
2022-12-06T19:19:18.902Z,24.00
2022-12-06T19:21:48.405Z,22.70
2022-12-06T19:24:20.199Z,22.40
2022-12-06T19:26:50.248Z,21.90
2022-12-06T19:29:18.808Z,21.70
2022-12-06T19:31:46.821Z,22.00
2022-12-06T19:34:20.479Z,21.30
2022-12-06T19:36:50.539Z,22.50
2022-12-06T19:39:19.506Z,24.00
2022-12-06T19:42:01.045Z,23.40
2022-12-06T19:44:29.404Z,22.90
2022-12-06T19:46:57.928Z,22.60
2022-12-06T19:49:27.306Z,23.30
2022-12-06T19:51:55.081Z,24.00
2022-12-06T19:54:26.590Z,22.30
2022-12-06T19:56:56.900Z,24.30
2022-12-06T19:59:28.056Z,26.80
2022-12-06T20:01:58.453Z,26.40
2022-12-06T20:04:30.889Z,22.60
2022-12-06T20:06:59.725Z,23.10
2022-12-06T20:09:30.088Z,24.70
2022-12-06T20:12:01.183Z,23.80
2022-12-06T20:14:36.597Z,24.60
2022-12-06T20:17:08.219Z,21.70
2022-12-06T20:19:37.281Z,21.00
2022-12-06T20:22:05.183Z,20.30
2022-12-06T20:24:33.114Z,19.30
2022-12-06T20:27:01.284Z,19.10
2022-12-06T20:29:30.515Z,18.70
2022-12-06T20:31:59.629Z,18.70
2022-12-06T20:34:32.835Z,20.90
2022-12-06T20:37:03.610Z,21.30
2022-12-06T20:39:35.968Z,19.90
2022-12-06T20:42:07.163Z,23.30
2022-12-06T20:44:35.582Z,24.50
2022-12-06T20:47:03.873Z,27.30
2022-12-06T20:49:31.970Z,28.50
2022-12-06T20:52:02.095Z,29.20
2022-12-06T20:54:30.800Z,27.80
2022-12-06T20:56:58.728Z,28.00
2022-12-06T20:59:27.068Z,28.30
2022-12-06T21:01:55.200Z,28.20
2022-12-06T21:04:23.115Z,30.70
2022-12-06T21:06:50.939Z,30.10
2022-12-06T21:09:19.071Z,28.10
2022-12-06T21:11:48.072Z,27.60
2022-12-06T21:14:17.125Z,28.30
2022-12-06T21:16:45.621Z,28.40
2022-12-06T21:19:16.855Z,28.30
2022-12-06T21:21:48.316Z,27.10
2022-12-06T21:24:18.615Z,24.30
2022-12-06T21:26:47.452Z,24.00
2022-12-06T21:29:21.633Z,23.30
2022-12-06T21:31:53.369Z,24.10
2022-12-06T21:34:21.310Z,22.40
2022-12-06T21:36:49.075Z,26.30
2022-12-06T21:39:16.842Z,28.70
2022-12-06T21:41:45.896Z,23.60
2022-12-06T21:44:13.722Z,24.90
2022-12-06T21:46:41.759Z,27.30
2022-12-06T21:49:10.941Z,24.50
2022-12-06T21:51:38.760Z,23.60
2022-12-06T21:54:06.586Z,22.60
2022-12-06T21:56:35.209Z,22.70
2022-12-06T21:59:03.044Z,23.10
2022-12-06T22:01:31.578Z,24.80
2022-12-06T22:04:02.405Z,24.30
2022-12-06T22:06:32.240Z,24.40
2022-12-06T22:09:03.481Z,23.70
2022-12-06T22:11:32.099Z,23.80
2022-12-06T22:14:00.813Z,25.90
2022-12-06T22:16:29.332Z,25.20
2022-12-06T22:18:58.030Z,24.50
2022-12-06T22:21:28.698Z,24.80
2022-12-06T22:23:58.272Z,25.40
2022-12-06T22:26:28.422Z,26.10
2022-12-06T22:28:58.437Z,25.30
2022-12-06T22:31:29.799Z,24.70
2022-12-06T22:33:58.240Z,25.80
2022-12-06T22:36:31.246Z,27.40
2022-12-06T22:39:01.828Z,27.90
2022-12-06T22:41:30.914Z,27.60
2022-12-06T22:44:01.352Z,25.80
2022-12-06T22:46:30.166Z,27.20
2022-12-06T22:48:59.460Z,25.70
2022-12-06T22:51:31.434Z,28.40
2022-12-06T22:54:02.310Z,26.50
2022-12-06T22:56:33.399Z,23.70
2022-12-06T22:59:02.533Z,25.40
2022-12-06T23:01:33.626Z,25.70
2022-12-06T23:04:04.891Z,25.00
2022-12-06T23:06:35.398Z,25.50
2022-12-06T23:09:05.735Z,24.70
2022-12-06T23:11:36.413Z,25.40
2022-12-06T23:14:04.589Z,25.10
2022-12-06T23:16:33.270Z,24.00
2022-12-06T23:19:02.604Z,23.60
2022-12-06T23:21:33.663Z,23.80
2022-12-06T23:24:05.821Z,23.80
2022-12-06T23:26:36.797Z,25.30
2022-12-06T23:29:05.662Z,25.30
2022-12-06T23:31:37.041Z,24.90
2022-12-06T23:34:11.170Z,22.70
2022-12-06T23:36:39.665Z,23.90
2022-12-06T23:39:07.859Z,24.60
2022-12-06T23:41:36.161Z,23.20
2022-12-06T23:44:05.606Z,23.80
2022-12-06T23:46:35.900Z,24.00
2022-12-06T23:49:05.359Z,24.20
2022-12-06T23:51:36.806Z,24.80
2022-12-06T23:54:06.895Z,25.00
2022-12-06T23:56:37.264Z,24.30
2022-12-06T23:59:08.846Z,21.80
